KFRH

Details ICAO KFRH
Name FRENCH LICK MUNI
Region United States
Timezone America/Indiana/Indianapolis (UTC-5.0)
Plans Departing 0
Arriving 1
Stats Elevation 792 ft / 241 m (AMSL)
Location 38.506223° -86.636948°
Runways 1
Magnetic Variation 4.191° W
Sunrise 2017-12-13 12:57:01 UTC / 2017-12-13 07:57:01 Local
Sunset 2017-12-13 22:27:32 UTC / 2017-12-13 17:27:32 Local
Advertisement - Login to hide

Runways

ID Width Length Bearing (true) Bearing (mag) Surface Threshold Offset Overrun Length
08 100 ft / 30 m 5,489 ft / 1,673 m 75.83° 80.02° Asphalt 0 ft / 0 m 0 ft / 0 m
26 100 ft / 30 m 5,489 ft / 1,673 m 255.84° 260.03° Asphalt 0 ft / 0 m 0 ft / 0 m

Map

Weather


0- 5 10 15 20 25 30 35+ Temperature / ° C

Clouds and Precipitation
Forecast for 2017-12-14 06:00 UTC. Updated 2 hours ago

Ground ~20,000 ft ~40,000 ft Winds

METAR

KFRH 140235Z AUTO 31008G20KT 10SM BKN026 OVC034 06/M01 A2964 RMK AO1

TAF

Not found

Frequencies

Recorded 118.07 MHz AWOS 3
Approach 123.67 MHz LOUISVILLE APP/DEP
Unicom 122.80 MHz CTAF/UNICOM
Approach 132.07 MHz LOUISVILLE APP/DEP
Warning: Do not use this data for real-world aviation or navigation. No guarantee of current accuracy is given.